sensor_id;sensor_type;location;lat;lon;timestamp;P1;durP1;ratioP1;P2;durP2;ratioP2
52974;SDS011;38839;45.186;5.720;2023-04-24T00:01:49;0.68;;;0.60;;
52974;SDS011;38839;45.186;5.720;2023-04-24T00:04:15;1.13;;;0.55;;
52974;SDS011;38839;45.186;5.720;2023-04-24T00:06:41;4.10;;;0.60;;
52974;SDS011;38839;45.186;5.720;2023-04-24T00:09:08;1.35;;;0.45;;
52974;SDS011;38839;45.186;5.720;2023-04-24T00:11:35;0.63;;;0.50;;
52974;SDS011;38839;45.186;5.720;2023-04-24T00:14:01;0.77;;;0.60;;
52974;SDS011;38839;45.186;5.720;2023-04-24T00:16:26;0.82;;;0.43;;
52974;SDS011;38839;45.186;5.720;2023-04-24T00:18:51;1.15;;;0.50;;
52974;SDS011;38839;45.186;5.720;2023-04-24T00:21:21;0.52;;;0.40;;
52974;SDS011;38839;45.186;5.720;2023-04-24T00:23:46;1.85;;;0.95;;
52974;SDS011;38839;45.186;5.720;2023-04-24T00:26:12;0.47;;;0.47;;
52974;SDS011;38839;45.186;5.720;2023-04-24T00:28:38;0.63;;;0.60;;
52974;SDS011;38839;45.186;5.720;2023-04-24T00:31:03;2.85;;;0.47;;
52974;SDS011;38839;45.186;5.720;2023-04-24T00:33:29;1.00;;;0.45;;
52974;SDS011;38839;45.186;5.720;2023-04-24T00:35:54;0.47;;;0.47;;
52974;SDS011;38839;45.186;5.720;2023-04-24T00:38:20;0.80;;;0.60;;
52974;SDS011;38839;45.186;5.720;2023-04-24T00:40:46;0.65;;;0.47;;
52974;SDS011;38839;45.186;5.720;2023-04-24T00:43:12;1.45;;;0.50;;
52974;SDS011;38839;45.186;5.720;2023-04-24T00:45:38;0.88;;;0.52;;
52974;SDS011;38839;45.186;5.720;2023-04-24T00:48:03;1.02;;;0.50;;
52974;SDS011;38839;45.186;5.720;2023-04-24T00:50:29;0.60;;;0.52;;
52974;SDS011;38839;45.186;5.720;2023-04-24T00:52:55;1.42;;;0.60;;
52974;SDS011;38839;45.186;5.720;2023-04-24T00:55:20;1.98;;;0.70;;
52974;SDS011;38839;45.186;5.720;2023-04-24T00:57:46;0.73;;;0.50;;
52974;SDS011;38839;45.186;5.720;2023-04-24T01:00:12;0.98;;;0.50;;
52974;SDS011;38839;45.186;5.720;2023-04-24T01:02:39;0.80;;;0.55;;
52974;SDS011;38839;45.186;5.720;2023-04-24T01:05:11;0.60;;;0.60;;
52974;SDS011;38839;45.186;5.720;2023-04-24T01:07:38;0.70;;;0.70;;
52974;SDS011;38839;45.186;5.720;2023-04-24T01:10:06;1.30;;;0.73;;
52974;SDS011;38839;45.186;5.720;2023-04-24T01:12:33;1.17;;;0.70;;
52974;SDS011;38839;45.186;5.720;2023-04-24T01:14:58;1.20;;;1.00;;
52974;SDS011;38839;45.186;5.720;2023-04-24T01:17:24;2.35;;;1.38;;
52974;SDS011;38839;45.186;5.720;2023-04-24T01:19:49;1.67;;;1.20;;
52974;SDS011;38839;45.186;5.720;2023-04-24T01:22:14;1.88;;;1.23;;
52974;SDS011;38839;45.186;5.720;2023-04-24T01:24:41;1.50;;;1.10;;
52974;SDS011;38839;45.186;5.720;2023-04-24T01:27:08;2.22;;;0.90;;
52974;SDS011;38839;45.186;5.720;2023-04-24T01:29:34;1.30;;;0.77;;
52974;SDS011;38839;45.186;5.720;2023-04-24T01:32:00;0.77;;;0.60;;
52974;SDS011;38839;45.186;5.720;2023-04-24T01:34:26;0.60;;;0.50;;
52974;SDS011;38839;45.186;5.720;2023-04-24T01:36:51;1.05;;;0.60;;
52974;SDS011;38839;45.186;5.720;2023-04-24T01:39:17;0.90;;;0.65;;
52974;SDS011;38839;45.186;5.720;2023-04-24T01:41:42;3.25;;;0.70;;
52974;SDS011;38839;45.186;5.720;2023-04-24T01:44:08;1.08;;;0.60;;
52974;SDS011;38839;45.186;5.720;2023-04-24T01:46:33;1.83;;;0.60;;
52974;SDS011;38839;45.186;5.720;2023-04-24T01:49:00;0.85;;;0.50;;
52974;SDS011;38839;45.186;5.720;2023-04-24T01:51:26;0.65;;;0.45;;
52974;SDS011;38839;45.186;5.720;2023-04-24T01:53:52;1.08;;;0.70;;
52974;SDS011;38839;45.186;5.720;2023-04-24T01:56:19;1.70;;;0.70;;
52974;SDS011;38839;45.186;5.720;2023-04-24T01:58:45;0.65;;;0.52;;
52974;SDS011;38839;45.186;5.720;2023-04-24T02:01:14;0.60;;;0.38;;
52974;SDS011;38839;45.186;5.720;2023-04-24T02:03:43;0.40;;;0.40;;
52974;SDS011;38839;45.186;5.720;2023-04-24T02:06:08;2.17;;;0.45;;
52974;SDS011;38839;45.186;5.720;2023-04-24T02:08:33;0.70;;;0.40;;
52974;SDS011;38839;45.186;5.720;2023-04-24T02:10:59;1.73;;;0.30;;
52974;SDS011;38839;45.186;5.720;2023-04-24T02:13:26;1.15;;;0.65;;
52974;SDS011;38839;45.186;5.720;2023-04-24T02:15:51;1.38;;;0.50;;
52974;SDS011;38839;45.186;5.720;2023-04-24T02:18:17;0.60;;;0.52;;
52974;SDS011;38839;45.186;5.720;2023-04-24T02:20:42;2.97;;;0.50;;
52974;SDS011;38839;45.186;5.720;2023-04-24T02:23:07;0.88;;;0.45;;
52974;SDS011;38839;45.186;5.720;2023-04-24T02:25:33;0.60;;;0.40;;
52974;SDS011;38839;45.186;5.720;2023-04-24T02:27:58;0.65;;;0.30;;
52974;SDS011;38839;45.186;5.720;2023-04-24T02:30:23;0.85;;;0.40;;
52974;SDS011;38839;45.186;5.720;2023-04-24T02:32:49;0.85;;;0.30;;
52974;SDS011;38839;45.186;5.720;2023-04-24T02:35:15;1.90;;;0.40;;
52974;SDS011;38839;45.186;5.720;2023-04-24T02:37:40;1.40;;;0.57;;
52974;SDS011;38839;45.186;5.720;2023-04-24T02:40:06;0.40;;;0.28;;
52974;SDS011;38839;45.186;5.720;2023-04-24T02:42:32;1.25;;;0.35;;
52974;SDS011;38839;45.186;5.720;2023-04-24T02:44:57;0.25;;;0.20;;
52974;SDS011;38839;45.186;5.720;2023-04-24T02:47:23;0.80;;;0.30;;
52974;SDS011;38839;45.186;5.720;2023-04-24T02:49:49;0.98;;;0.57;;
52974;SDS011;38839;45.186;5.720;2023-04-24T02:52:14;0.88;;;0.40;;
52974;SDS011;38839;45.186;5.720;2023-04-24T02:54:40;2.38;;;0.30;;
52974;SDS011;38839;45.186;5.720;2023-04-24T02:57:05;0.40;;;0.40;;
52974;SDS011;38839;45.186;5.720;2023-04-24T02:59:31;0.98;;;0.30;;
52974;SDS011;38839;45.186;5.720;2023-04-24T03:01:56;0.98;;;0.30;;
52974;SDS011;38839;45.186;5.720;2023-04-24T03:04:22;0.77;;;0.35;;
52974;SDS011;38839;45.186;5.720;2023-04-24T03:06:47;2.08;;;0.30;;
52974;SDS011;38839;45.186;5.720;2023-04-24T03:09:13;3.30;;;0.50;;
52974;SDS011;38839;45.186;5.720;2023-04-24T03:11:38;0.28;;;0.25;;
52974;SDS011;38839;45.186;5.720;2023-04-24T03:14:04;0.28;;;0.25;;
52974;SDS011;38839;45.186;5.720;2023-04-24T03:16:29;1.10;;;0.40;;
52974;SDS011;38839;45.186;5.720;2023-04-24T03:18:55;2.35;;;0.35;;
52974;SDS011;38839;45.186;5.720;2023-04-24T03:21:20;0.40;;;0.30;;
52974;SDS011;38839;45.186;5.720;2023-04-24T03:23:46;1.90;;;0.60;;
52974;SDS011;38839;45.186;5.720;2023-04-24T03:26:11;0.90;;;0.50;;
52974;SDS011;38839;45.186;5.720;2023-04-24T03:28:37;0.85;;;0.50;;
52974;SDS011;38839;45.186;5.720;2023-04-24T03:31:02;0.50;;;0.50;;
52974;SDS011;38839;45.186;5.720;2023-04-24T03:33:28;2.97;;;0.70;;
52974;SDS011;38839;45.186;5.720;2023-04-24T03:35:53;1.27;;;0.50;;
52974;SDS011;38839;45.186;5.720;2023-04-24T03:38:19;3.15;;;0.60;;
52974;SDS011;38839;45.186;5.720;2023-04-24T03:40:44;0.95;;;0.70;;
52974;SDS011;38839;45.186;5.720;2023-04-24T03:43:09;1.55;;;0.77;;
52974;SDS011;38839;45.186;5.720;2023-04-24T03:45:35;0.60;;;0.50;;
52974;SDS011;38839;45.186;5.720;2023-04-24T03:48:00;1.70;;;0.60;;
52974;SDS011;38839;45.186;5.720;2023-04-24T03:50:26;2.15;;;0.50;;
52974;SDS011;38839;45.186;5.720;2023-04-24T03:52:51;1.20;;;0.80;;
52974;SDS011;38839;45.186;5.720;2023-04-24T03:55:17;1.15;;;0.60;;
52974;SDS011;38839;45.186;5.720;2023-04-24T03:57:43;0.43;;;0.40;;
52974;SDS011;38839;45.186;5.720;2023-04-24T04:00:08;1.35;;;0.50;;
52974;SDS011;38839;45.186;5.720;2023-04-24T04:02:34;0.30;;;0.30;;
52974;SDS011;38839;45.186;5.720;2023-04-24T04:05:00;0.93;;;0.47;;
52974;SDS011;38839;45.186;5.720;2023-04-24T04:07:25;2.05;;;0.50;;
52974;SDS011;38839;45.186;5.720;2023-04-24T04:09:50;0.60;;;0.50;;
52974;SDS011;38839;45.186;5.720;2023-04-24T04:12:16;3.40;;;0.60;;
52974;SDS011;38839;45.186;5.720;2023-04-24T04:14:41;1.95;;;0.43;;
52974;SDS011;38839;45.186;5.720;2023-04-24T04:17:06;0.82;;;0.50;;
52974;SDS011;38839;45.186;5.720;2023-04-24T04:19:32;2.15;;;0.70;;
52974;SDS011;38839;45.186;5.720;2023-04-24T04:21:57;2.13;;;0.70;;
52974;SDS011;38839;45.186;5.720;2023-04-24T04:24:23;2.17;;;0.50;;
52974;SDS011;38839;45.186;5.720;2023-04-24T04:26:49;2.88;;;0.50;;
52974;SDS011;38839;45.186;5.720;2023-04-24T04:29:16;0.88;;;0.70;;
52974;SDS011;38839;45.186;5.720;2023-04-24T04:31:42;1.10;;;0.70;;
52974;SDS011;38839;45.186;5.720;2023-04-24T04:34:08;3.25;;;1.60;;
52974;SDS011;38839;45.186;5.720;2023-04-24T04:36:34;3.80;;;3.10;;
52974;SDS011;38839;45.186;5.720;2023-04-24T04:39:02;6.78;;;5.05;;
52974;SDS011;38839;45.186;5.720;2023-04-24T04:41:27;8.15;;;5.43;;
52974;SDS011;38839;45.186;5.720;2023-04-24T04:43:53;9.68;;;6.60;;
52974;SDS011;38839;45.186;5.720;2023-04-24T04:46:18;15.43;;;8.00;;
52974;SDS011;38839;45.186;5.720;2023-04-24T04:48:43;9.27;;;7.30;;
52974;SDS011;38839;45.186;5.720;2023-04-24T04:51:09;12.05;;;6.65;;
52974;SDS011;38839;45.186;5.720;2023-04-24T04:53:34;7.57;;;5.70;;
52974;SDS011;38839;45.186;5.720;2023-04-24T04:56:00;7.43;;;5.32;;
52974;SDS011;38839;45.186;5.720;2023-04-24T04:58:25;8.23;;;4.68;;
52974;SDS011;38839;45.186;5.720;2023-04-24T05:00:51;5.50;;;3.70;;
52974;SDS011;38839;45.186;5.720;2023-04-24T05:03:17;7.05;;;3.78;;
52974;SDS011;38839;45.186;5.720;2023-04-24T05:05:42;6.72;;;2.75;;
52974;SDS011;38839;45.186;5.720;2023-04-24T05:08:08;4.68;;;1.98;;
52974;SDS011;38839;45.186;5.720;2023-04-24T05:10:33;2.72;;;1.52;;
52974;SDS011;38839;45.186;5.720;2023-04-24T05:12:59;2.20;;;1.17;;
52974;SDS011;38839;45.186;5.720;2023-04-24T05:15:26;2.63;;;1.50;;
52974;SDS011;38839;45.186;5.720;2023-04-24T05:17:51;1.25;;;1.08;;
52974;SDS011;38839;45.186;5.720;2023-04-24T05:20:16;0.65;;;0.52;;
52974;SDS011;38839;45.186;5.720;2023-04-24T05:22:42;2.53;;;0.43;;
52974;SDS011;38839;45.186;5.720;2023-04-24T05:25:08;1.75;;;0.73;;
52974;SDS011;38839;45.186;5.720;2023-04-24T05:27:33;37.35;;;2.42;;
52974;SDS011;38839;45.186;5.720;2023-04-24T05:29:59;0.88;;;0.47;;
52974;SDS011;38839;45.186;5.720;2023-04-24T05:32:24;1.67;;;1.13;;
52974;SDS011;38839;45.186;5.720;2023-04-24T05:34:50;0.93;;;0.63;;
52974;SDS011;38839;45.186;5.720;2023-04-24T05:37:16;1.20;;;0.60;;
52974;SDS011;38839;45.186;5.720;2023-04-24T05:39:41;2.75;;;0.80;;
52974;SDS011;38839;45.186;5.720;2023-04-24T05:42:06;0.85;;;0.50;;
52974;SDS011;38839;45.186;5.720;2023-04-24T05:44:32;1.65;;;0.70;;
52974;SDS011;38839;45.186;5.720;2023-04-24T05:46:58;2.05;;;0.85;;
52974;SDS011;38839;45.186;5.720;2023-04-24T05:49:23;2.67;;;1.20;;
52974;SDS011;38839;45.186;5.720;2023-04-24T05:51:49;1.02;;;0.70;;
52974;SDS011;38839;45.186;5.720;2023-04-24T05:54:14;1.15;;;0.70;;
52974;SDS011;38839;45.186;5.720;2023-04-24T05:56:40;1.15;;;0.90;;
52974;SDS011;38839;45.186;5.720;2023-04-24T05:59:05;0.57;;;0.57;;
52974;SDS011;38839;45.186;5.720;2023-04-24T06:01:32;0.73;;;0.73;;
52974;SDS011;38839;45.186;5.720;2023-04-24T06:03:58;4.55;;;1.38;;
52974;SDS011;38839;45.186;5.720;2023-04-24T06:06:23;2.67;;;1.10;;
52974;SDS011;38839;45.186;5.720;2023-04-24T06:08:49;1.98;;;1.17;;
52974;SDS011;38839;45.186;5.720;2023-04-24T06:11:14;2.53;;;1.35;;
52974;SDS011;38839;45.186;5.720;2023-04-24T06:13:39;2.58;;;1.33;;
52974;SDS011;38839;45.186;5.720;2023-04-24T06:19:39;3.58;;;1.33;;
52974;SDS011;38839;45.186;5.720;2023-04-24T06:22:05;1.63;;;1.10;;
52974;SDS011;38839;45.186;5.720;2023-04-24T06:24:30;2.85;;;1.05;;
52974;SDS011;38839;45.186;5.720;2023-04-24T06:26:56;2.55;;;1.02;;
52974;SDS011;38839;45.186;5.720;2023-04-24T06:29:23;2.42;;;1.00;;
52974;SDS011;38839;45.186;5.720;2023-04-24T06:31:49;2.53;;;1.17;;
52974;SDS011;38839;45.186;5.720;2023-04-24T06:34:14;3.63;;;1.25;;
52974;SDS011;38839;45.186;5.720;2023-04-24T06:36:40;1.73;;;1.38;;
52974;SDS011;38839;45.186;5.720;2023-04-24T06:39:06;3.50;;;1.42;;
52974;SDS011;38839;45.186;5.720;2023-04-24T06:41:31;1.40;;;1.00;;
52974;SDS011;38839;45.186;5.720;2023-04-24T06:43:57;1.85;;;1.05;;
52974;SDS011;38839;45.186;5.720;2023-04-24T06:46:22;2.05;;;1.17;;
52974;SDS011;38839;45.186;5.720;2023-04-24T06:48:50;2.22;;;1.10;;
52974;SDS011;38839;45.186;5.720;2023-04-24T06:51:17;1.77;;;1.08;;
52974;SDS011;38839;45.186;5.720;2023-04-24T06:53:43;3.42;;;1.20;;
52974;SDS011;38839;45.186;5.720;2023-04-24T06:56:08;4.40;;;1.75;;
52974;SDS011;38839;45.186;5.720;2023-04-24T06:58:33;4.45;;;1.30;;
52974;SDS011;38839;45.186;5.720;2023-04-24T07:00:59;2.53;;;1.00;;
52974;SDS011;38839;45.186;5.720;2023-04-24T07:03:24;2.03;;;0.75;;
52974;SDS011;38839;45.186;5.720;2023-04-24T07:05:50;2.70;;;0.95;;
52974;SDS011;38839;45.186;5.720;2023-04-24T07:08:16;2.92;;;1.40;;
52974;SDS011;38839;45.186;5.720;2023-04-24T07:10:42;1.77;;;1.30;;
52974;SDS011;38839;45.186;5.720;2023-04-24T07:13:09;3.35;;;1.40;;
52974;SDS011;38839;45.186;5.720;2023-04-24T07:15:34;1.17;;;0.95;;
52974;SDS011;38839;45.186;5.720;2023-04-24T07:18:00;2.03;;;1.13;;
52974;SDS011;38839;45.186;5.720;2023-04-24T07:20:25;2.17;;;1.20;;
52974;SDS011;38839;45.186;5.720;2023-04-24T07:22:51;1.25;;;1.00;;
52974;SDS011;38839;45.186;5.720;2023-04-24T07:25:18;2.00;;;0.80;;
52974;SDS011;38839;45.186;5.720;2023-04-24T07:27:44;2.67;;;1.08;;
52974;SDS011;38839;45.186;5.720;2023-04-24T07:30:10;1.08;;;0.90;;
52974;SDS011;38839;45.186;5.720;2023-04-24T07:32:36;2.05;;;0.82;;
52974;SDS011;38839;45.186;5.720;2023-04-24T07:35:01;1.42;;;0.70;;
52974;SDS011;38839;45.186;5.720;2023-04-24T07:37:27;1.60;;;0.80;;
52974;SDS011;38839;45.186;5.720;2023-04-24T07:39:53;2.60;;;1.05;;
52974;SDS011;38839;45.186;5.720;2023-04-24T07:42:20;1.90;;;0.90;;
52974;SDS011;38839;45.186;5.720;2023-04-24T07:44:45;4.10;;;1.20;;
52974;SDS011;38839;45.186;5.720;2023-04-24T07:47:12;0.40;;;0.40;;
52974;SDS011;38839;45.186;5.720;2023-04-24T07:49:40;0.68;;;0.65;;
52974;SDS011;38839;45.186;5.720;2023-04-24T07:52:08;3.28;;;0.80;;
52974;SDS011;38839;45.186;5.720;2023-04-24T07:54:33;3.15;;;0.80;;
52974;SDS011;38839;45.186;5.720;2023-04-24T07:56:59;2.75;;;0.57;;
52974;SDS011;38839;45.186;5.720;2023-04-24T07:59:25;0.70;;;0.70;;
52974;SDS011;38839;45.186;5.720;2023-04-24T08:01:51;1.35;;;0.70;;
52974;SDS011;38839;45.186;5.720;2023-04-24T08:04:16;1.50;;;0.68;;
52974;SDS011;38839;45.186;5.720;2023-04-24T08:06:42;1.10;;;0.55;;
52974;SDS011;38839;45.186;5.720;2023-04-24T08:09:08;0.88;;;0.50;;
52974;SDS011;38839;45.186;5.720;2023-04-24T08:11:34;1.63;;;0.50;;
52974;SDS011;38839;45.186;5.720;2023-04-24T08:13:59;1.25;;;0.68;;
52974;SDS011;38839;45.186;5.720;2023-04-24T08:16:24;2.17;;;0.70;;
52974;SDS011;38839;45.186;5.720;2023-04-24T08:18:51;0.65;;;0.60;;
52974;SDS011;38839;45.186;5.720;2023-04-24T08:21:16;2.85;;;0.63;;
52974;SDS011;38839;45.186;5.720;2023-04-24T08:23:43;5.45;;;0.70;;
52974;SDS011;38839;45.186;5.720;2023-04-24T08:26:09;1.10;;;0.80;;
52974;SDS011;38839;45.186;5.720;2023-04-24T08:28:36;0.93;;;0.50;;
52974;SDS011;38839;45.186;5.720;2023-04-24T08:31:01;2.25;;;0.70;;
52974;SDS011;38839;45.186;5.720;2023-04-24T08:33:27;2.70;;;1.10;;
52974;SDS011;38839;45.186;5.720;2023-04-24T08:35:57;2.60;;;0.70;;
52974;SDS011;38839;45.186;5.720;2023-04-24T08:38:23;1.23;;;0.77;;
52974;SDS011;38839;45.186;5.720;2023-04-24T08:40:48;2.13;;;0.70;;
52974;SDS011;38839;45.186;5.720;2023-04-24T08:43:14;1.63;;;0.93;;
52974;SDS011;38839;45.186;5.720;2023-04-24T08:45:41;2.10;;;0.60;;
52974;SDS011;38839;45.186;5.720;2023-04-24T08:48:07;1.85;;;0.77;;
52974;SDS011;38839;45.186;5.720;2023-04-24T08:50:32;5.38;;;0.70;;
52974;SDS011;38839;45.186;5.720;2023-04-24T08:52:59;1.52;;;1.00;;
52974;SDS011;38839;45.186;5.720;2023-04-24T08:55:26;1.92;;;0.73;;
52974;SDS011;38839;45.186;5.720;2023-04-24T08:57:55;2.80;;;1.30;;
52974;SDS011;38839;45.186;5.720;2023-04-24T09:00:21;2.55;;;1.80;;
52974;SDS011;38839;45.186;5.720;2023-04-24T09:02:47;1.98;;;1.52;;
52974;SDS011;38839;45.186;5.720;2023-04-24T09:05:14;2.85;;;1.83;;
52974;SDS011;38839;45.186;5.720;2023-04-24T09:07:43;2.80;;;2.47;;
52974;SDS011;38839;45.186;5.720;2023-04-24T09:10:11;1.60;;;1.50;;
52974;SDS011;38839;45.186;5.720;2023-04-24T09:12:37;1.45;;;1.02;;
52974;SDS011;38839;45.186;5.720;2023-04-24T09:15:03;1.08;;;0.70;;
52974;SDS011;38839;45.186;5.720;2023-04-24T09:17:30;0.65;;;0.60;;
52974;SDS011;38839;45.186;5.720;2023-04-24T09:19:55;1.63;;;0.70;;
52974;SDS011;38839;45.186;5.720;2023-04-24T09:22:21;2.47;;;0.70;;
52974;SDS011;38839;45.186;5.720;2023-04-24T09:24:46;0.90;;;0.73;;
52974;SDS011;38839;45.186;5.720;2023-04-24T09:27:12;2.55;;;0.60;;
52974;SDS011;38839;45.186;5.720;2023-04-24T09:29:41;0.47;;;0.47;;
52974;SDS011;38839;45.186;5.720;2023-04-24T09:32:19;1.45;;;0.77;;
52974;SDS011;38839;45.186;5.720;2023-04-24T09:35:04;2.05;;;0.70;;
52974;SDS011;38839;45.186;5.720;2023-04-24T09:37:37;1.00;;;0.77;;
52974;SDS011;38839;45.186;5.720;2023-04-24T09:42:37;1.13;;;0.80;;
52974;SDS011;38839;45.186;5.720;2023-04-24T09:45:04;2.05;;;0.90;;
52974;SDS011;38839;45.186;5.720;2023-04-24T09:47:38;0.65;;;0.47;;
52974;SDS011;38839;45.186;5.720;2023-04-24T09:50:11;0.80;;;0.35;;
52974;SDS011;38839;45.186;5.720;2023-04-24T09:52:44;2.58;;;0.57;;
52974;SDS011;38839;45.186;5.720;2023-04-24T09:55:18;2.65;;;0.60;;
52974;SDS011;38839;45.186;5.720;2023-04-24T09:57:49;1.20;;;0.55;;
52974;SDS011;38839;45.186;5.720;2023-04-24T10:00:25;0.63;;;0.45;;
52974;SDS011;38839;45.186;5.720;2023-04-24T15:20:31;0.82;;;0.50;;
52974;SDS011;38839;45.186;5.720;2023-04-24T15:22:56;1.00;;;0.70;;
52974;SDS011;38839;45.186;5.720;2023-04-24T15:25:24;1.15;;;0.52;;
52974;SDS011;38839;45.186;5.720;2023-04-24T15:27:49;3.47;;;0.60;;
52974;SDS011;38839;45.186;5.720;2023-04-24T15:30:15;0.85;;;0.73;;
52974;SDS011;38839;45.186;5.720;2023-04-24T15:32:40;1.85;;;0.60;;
52974;SDS011;38839;45.186;5.720;2023-04-24T15:35:06;2.75;;;0.60;;
52974;SDS011;38839;45.186;5.720;2023-04-24T15:37:32;0.80;;;0.60;;
52974;SDS011;38839;45.186;5.720;2023-04-24T15:39:57;2.40;;;0.60;;
52974;SDS011;38839;45.186;5.720;2023-04-24T15:42:24;1.88;;;0.60;;
52974;SDS011;38839;45.186;5.720;2023-04-24T15:44:50;0.57;;;0.57;;
52974;SDS011;38839;45.186;5.720;2023-04-24T15:47:15;1.15;;;0.60;;
52974;SDS011;38839;45.186;5.720;2023-04-24T15:49:41;2.30;;;0.50;;
52974;SDS011;38839;45.186;5.720;2023-04-24T15:52:06;1.38;;;0.60;;
52974;SDS011;38839;45.186;5.720;2023-04-24T15:54:34;1.00;;;0.57;;
52974;SDS011;38839;45.186;5.720;2023-04-24T15:56:59;4.45;;;0.77;;
52974;SDS011;38839;45.186;5.720;2023-04-24T15:59:25;2.05;;;0.65;;
52974;SDS011;38839;45.186;5.720;2023-04-24T16:01:52;2.50;;;0.68;;
52974;SDS011;38839;45.186;5.720;2023-04-24T16:04:19;1.15;;;0.50;;
52974;SDS011;38839;45.186;5.720;2023-04-24T16:06:45;0.57;;;0.55;;
52974;SDS011;38839;45.186;5.720;2023-04-24T16:09:10;0.47;;;0.47;;
52974;SDS011;38839;45.186;5.720;2023-04-24T16:11:37;1.13;;;0.90;;
52974;SDS011;38839;45.186;5.720;2023-04-24T16:14:03;1.35;;;0.65;;
52974;SDS011;38839;45.186;5.720;2023-04-24T16:16:29;1.75;;;0.77;;
52974;SDS011;38839;45.186;5.720;2023-04-24T16:18:55;0.77;;;0.70;;
52974;SDS011;38839;45.186;5.720;2023-04-24T16:21:21;3.50;;;0.90;;
52974;SDS011;38839;45.186;5.720;2023-04-24T16:23:46;1.63;;;0.80;;
52974;SDS011;38839;45.186;5.720;2023-04-24T16:26:12;1.00;;;0.65;;
52974;SDS011;38839;45.186;5.720;2023-04-24T16:28:38;2.10;;;0.60;;
52974;SDS011;38839;45.186;5.720;2023-04-24T16:31:03;1.98;;;0.70;;
52974;SDS011;38839;45.186;5.720;2023-04-24T16:33:29;2.10;;;1.00;;
52974;SDS011;38839;45.186;5.720;2023-04-24T16:35:55;2.05;;;0.68;;
52974;SDS011;38839;45.186;5.720;2023-04-24T16:38:21;0.88;;;0.50;;
52974;SDS011;38839;45.186;5.720;2023-04-24T16:40:49;1.58;;;0.77;;
52974;SDS011;38839;45.186;5.720;2023-04-24T16:43:14;5.03;;;0.88;;
52974;SDS011;38839;45.186;5.720;2023-04-24T16:45:40;2.53;;;0.68;;
52974;SDS011;38839;45.186;5.720;2023-04-24T16:48:05;2.67;;;0.88;;
52974;SDS011;38839;45.186;5.720;2023-04-24T16:50:31;2.10;;;1.00;;
52974;SDS011;38839;45.186;5.720;2023-04-24T16:52:57;1.20;;;0.80;;
52974;SDS011;38839;45.186;5.720;2023-04-24T16:55:22;4.32;;;1.02;;
52974;SDS011;38839;45.186;5.720;2023-04-24T16:57:49;2.90;;;0.75;;
52974;SDS011;38839;45.186;5.720;2023-04-24T17:00:14;6.25;;;0.80;;
52974;SDS011;38839;45.186;5.720;2023-04-24T17:02:40;0.93;;;0.80;;
52974;SDS011;38839;45.186;5.720;2023-04-24T17:05:05;2.92;;;0.68;;
52974;SDS011;38839;45.186;5.720;2023-04-24T17:07:31;1.52;;;0.88;;
52974;SDS011;38839;45.186;5.720;2023-04-24T17:09:58;2.17;;;0.90;;
52974;SDS011;38839;45.186;5.720;2023-04-24T17:12:23;3.95;;;0.65;;
52974;SDS011;38839;45.186;5.720;2023-04-24T17:14:49;4.30;;;0.75;;
52974;SDS011;38839;45.186;5.720;2023-04-24T17:17:14;0.63;;;0.55;;
52974;SDS011;38839;45.186;5.720;2023-04-24T17:19:40;1.35;;;0.80;;
52974;SDS011;38839;45.186;5.720;2023-04-24T17:22:05;2.15;;;0.60;;
52974;SDS011;38839;45.186;5.720;2023-04-24T17:24:31;1.48;;;0.60;;
52974;SDS011;38839;45.186;5.720;2023-04-24T17:26:56;0.75;;;0.60;;
52974;SDS011;38839;45.186;5.720;2023-04-24T17:29:24;0.80;;;0.60;;
52974;SDS011;38839;45.186;5.720;2023-04-24T17:31:49;1.95;;;0.65;;
52974;SDS011;38839;45.186;5.720;2023-04-24T17:34:15;3.35;;;0.63;;
52974;SDS011;38839;45.186;5.720;2023-04-24T17:36:41;0.85;;;0.60;;
52974;SDS011;38839;45.186;5.720;2023-04-24T17:39:06;2.30;;;0.80;;
52974;SDS011;38839;45.186;5.720;2023-04-24T17:41:34;1.45;;;0.80;;
52974;SDS011;38839;45.186;5.720;2023-04-24T17:43:59;0.80;;;0.80;;
52974;SDS011;38839;45.186;5.720;2023-04-24T17:46:25;2.05;;;0.70;;
52974;SDS011;38839;45.186;5.720;2023-04-24T17:48:50;2.63;;;0.77;;
52974;SDS011;38839;45.186;5.720;2023-04-24T17:51:15;1.33;;;0.68;;
52974;SDS011;38839;45.186;5.720;2023-04-24T17:53:41;2.60;;;0.90;;
52974;SDS011;38839;45.186;5.720;2023-04-24T17:56:06;1.38;;;0.85;;
52974;SDS011;38839;45.186;5.720;2023-04-24T17:58:32;1.52;;;0.75;;
52974;SDS011;38839;45.186;5.720;2023-04-24T18:00:58;1.70;;;0.70;;
52974;SDS011;38839;45.186;5.720;2023-04-24T18:03:24;1.33;;;0.90;;
52974;SDS011;38839;45.186;5.720;2023-04-24T18:05:49;0.88;;;0.70;;
52974;SDS011;38839;45.186;5.720;2023-04-24T18:08:15;3.75;;;0.80;;
52974;SDS011;38839;45.186;5.720;2023-04-24T18:10:40;0.70;;;0.65;;
52974;SDS011;38839;45.186;5.720;2023-04-24T18:13:06;1.20;;;0.55;;
52974;SDS011;38839;45.186;5.720;2023-04-24T18:15:33;1.60;;;0.50;;
52974;SDS011;38839;45.186;5.720;2023-04-24T18:17:59;4.05;;;0.90;;
52974;SDS011;38839;45.186;5.720;2023-04-24T18:20:25;1.95;;;0.88;;
52974;SDS011;38839;45.186;5.720;2023-04-24T18:22:50;1.05;;;0.50;;
52974;SDS011;38839;45.186;5.720;2023-04-24T18:25:16;1.85;;;0.70;;
52974;SDS011;38839;45.186;5.720;2023-04-24T18:27:45;3.40;;;0.60;;
52974;SDS011;38839;45.186;5.720;2023-04-24T18:30:10;2.15;;;0.80;;
52974;SDS011;38839;45.186;5.720;2023-04-24T18:32:36;0.95;;;0.68;;
52974;SDS011;38839;45.186;5.720;2023-04-24T18:35:02;3.10;;;0.82;;
52974;SDS011;38839;45.186;5.720;2023-04-24T18:37:28;2.58;;;0.88;;
52974;SDS011;38839;45.186;5.720;2023-04-24T18:39:53;3.28;;;1.00;;
52974;SDS011;38839;45.186;5.720;2023-04-24T18:42:20;1.77;;;1.05;;
52974;SDS011;38839;45.186;5.720;2023-04-24T18:44:46;1.08;;;0.80;;
52974;SDS011;38839;45.186;5.720;2023-04-24T18:47:12;2.67;;;0.90;;
52974;SDS011;38839;45.186;5.720;2023-04-24T18:49:37;3.63;;;1.08;;
52974;SDS011;38839;45.186;5.720;2023-04-24T18:52:03;2.03;;;0.90;;
52974;SDS011;38839;45.186;5.720;2023-04-24T18:54:29;1.75;;;0.90;;
52974;SDS011;38839;45.186;5.720;2023-04-24T18:56:55;1.42;;;0.73;;
52974;SDS011;38839;45.186;5.720;2023-04-24T18:59:20;0.95;;;0.80;;
52974;SDS011;38839;45.186;5.720;2023-04-24T19:01:46;1.73;;;0.90;;
52974;SDS011;38839;45.186;5.720;2023-04-24T19:04:11;2.05;;;0.93;;
52974;SDS011;38839;45.186;5.720;2023-04-24T19:06:37;1.67;;;1.00;;
52974;SDS011;38839;45.186;5.720;2023-04-24T19:09:03;3.22;;;1.00;;
52974;SDS011;38839;45.186;5.720;2023-04-24T19:11:29;1.08;;;0.80;;
52974;SDS011;38839;45.186;5.720;2023-04-24T19:13:54;3.10;;;1.27;;
52974;SDS011;38839;45.186;5.720;2023-04-24T19:16:21;2.47;;;0.80;;
52974;SDS011;38839;45.186;5.720;2023-04-24T19:18:46;5.07;;;1.00;;
52974;SDS011;38839;45.186;5.720;2023-04-24T19:21:11;1.85;;;0.90;;
52974;SDS011;38839;45.186;5.720;2023-04-24T19:23:37;3.45;;;1.08;;
52974;SDS011;38839;45.186;5.720;2023-04-24T19:26:05;1.40;;;1.00;;
52974;SDS011;38839;45.186;5.720;2023-04-24T19:28:31;1.17;;;0.95;;
52974;SDS011;38839;45.186;5.720;2023-04-24T19:30:56;1.92;;;1.00;;
52974;SDS011;38839;45.186;5.720;2023-04-24T19:33:25;3.22;;;1.00;;
52974;SDS011;38839;45.186;5.720;2023-04-24T19:35:51;2.05;;;1.00;;
52974;SDS011;38839;45.186;5.720;2023-04-24T19:38:17;1.27;;;0.90;;
52974;SDS011;38839;45.186;5.720;2023-04-24T19:40:43;3.80;;;1.58;;
52974;SDS011;38839;45.186;5.720;2023-04-24T19:43:08;2.05;;;1.10;;
52974;SDS011;38839;45.186;5.720;2023-04-24T19:45:34;2.28;;;1.13;;
52974;SDS011;38839;45.186;5.720;2023-04-24T19:47:59;4.38;;;1.23;;
52974;SDS011;38839;45.186;5.720;2023-04-24T19:50:25;1.80;;;1.20;;
52974;SDS011;38839;45.186;5.720;2023-04-24T19:52:51;2.10;;;1.10;;
52974;SDS011;38839;45.186;5.720;2023-04-24T19:55:16;2.33;;;1.13;;
52974;SDS011;38839;45.186;5.720;2023-04-24T19:57:42;3.15;;;1.30;;
52974;SDS011;38839;45.186;5.720;2023-04-24T20:00:07;2.72;;;1.38;;
52974;SDS011;38839;45.186;5.720;2023-04-24T20:02:34;4.90;;;1.35;;
52974;SDS011;38839;45.186;5.720;2023-04-24T20:04:59;1.70;;;1.00;;